Time;durP1;ratioP1;P1;durP2;ratioP2;P2;SDS_P1;SDS_P2;PMS_P1;PMS_P2;Temp;Humidity;BMP_temperature;BMP_pressure;BME280_temperature;BME280_humidity;BME280_pressure;Samples;Min_cycle;Max_cycle;Signal;HPM_P1;HPM_P2
2021/11/29 00:00:19;;;;;;;25.00;16.77;;;5.30;99.90;;;;;;5022046;28;20293;-65
2021/11/29 00:02:48;;;;;;;25.53;17.00;;;5.30;99.90;;;;;;5032686;28;20245;-66
2021/11/29 00:05:15;;;;;;;24.73;16.03;;;5.30;99.90;;;;;;5025161;28;20635;-66
2021/11/29 00:07:43;;;;;;;25.57;16.50;;;5.30;99.90;;;;;;5023099;28;20230;-66
2021/11/29 00:10:11;;;;;;;24.53;15.93;;;5.30;99.90;;;;;;5018493;28;20246;-67
2021/11/29 00:12:38;;;;;;;26.40;16.47;;;5.40;99.90;;;;;;5025802;28;20207;-66
2021/11/29 00:15:07;;;;;;;24.90;15.97;;;5.20;99.90;;;;;;5016330;28;20818;-66
2021/11/29 00:17:34;;;;;;;24.47;15.07;;;5.30;99.90;;;;;;5027225;28;20265;-66
2021/11/29 00:20:01;;;;;;;23.87;15.33;;;5.30;99.90;;;;;;5013246;28;20665;-66
2021/11/29 00:22:28;;;;;;;22.93;14.97;;;5.30;99.90;;;;;;5027095;28;20294;-66
2021/11/29 00:24:55;;;;;;;23.30;15.57;;;5.30;99.90;;;;;;5022305;28;20590;-65
2021/11/29 00:27:23;;;;;;;23.63;14.70;;;5.40;99.90;;;;;;5021024;28;20230;-65
2021/11/29 00:29:50;;;;;;;22.90;15.33;;;5.30;99.90;;;;;;5016292;28;20297;-66
2021/11/29 00:32:17;;;;;;;22.00;15.07;;;5.30;99.90;;;;;;5018793;28;20218;-67
2021/11/29 00:34:44;;;;;;;21.60;14.77;;;5.30;99.90;;;;;;5019444;28;20300;-68
2021/11/29 00:37:11;;;;;;;24.20;14.90;;;5.30;99.90;;;;;;5025425;28;20203;-65
2021/11/29 00:39:38;;;;;;;23.67;14.67;;;5.30;99.90;;;;;;5012919;28;20728;-66
2021/11/29 00:42:05;;;;;;;23.30;15.00;;;5.30;99.90;;;;;;5023975;28;20288;-68
2021/11/29 00:44:34;;;;;;;24.67;15.03;;;5.40;99.90;;;;;;5024912;28;20661;-67
2021/11/29 00:47:00;;;;;;;24.70;14.93;;;5.40;99.90;;;;;;5024015;28;20668;-66
2021/11/29 00:49:28;;;;;;;23.47;14.63;;;5.40;99.90;;;;;;5019360;28;20767;-66
2021/11/29 00:51:55;;;;;;;25.20;15.23;;;5.50;99.90;;;;;;5024269;28;20294;-67
2021/11/29 00:54:22;;;;;;;25.40;16.10;;;5.40;99.90;;;;;;5013386;28;20676;-66
2021/11/29 00:56:48;;;;;;;24.50;15.33;;;5.40;99.90;;;;;;5011843;28;20322;-66
2021/11/29 00:59:15;;;;;;;23.67;14.40;;;5.40;99.90;;;;;;5011118;28;20227;-66
2021/11/29 01:01:44;;;;;;;23.07;15.07;;;5.30;99.90;;;;;;5021361;28;20569;-67
2021/11/29 01:04:11;;;;;;;22.40;14.37;;;5.30;99.90;;;;;;5024391;28;20223;-65
2021/11/29 01:06:38;;;;;;;25.03;14.60;;;5.30;99.90;;;;;;5015808;28;20302;-65
2021/11/29 01:09:06;;;;;;;22.80;13.70;;;5.40;99.90;;;;;;5019573;28;20282;-67
2021/11/29 01:11:33;;;;;;;24.27;15.17;;;5.40;99.90;;;;;;5028351;28;20290;-67
2021/11/29 01:14:00;;;;;;;23.27;14.77;;;5.30;99.90;;;;;;5025781;28;20802;-67
2021/11/29 01:16:26;;;;;;;24.17;15.10;;;5.30;99.90;;;;;;5023141;28;20299;-66
2021/11/29 01:18:55;;;;;;;22.93;14.17;;;5.40;99.90;;;;;;5015122;28;20223;-67
2021/11/29 01:21:22;;;;;;;21.43;13.20;;;5.30;99.90;;;;;;5014290;28;20304;-68
2021/11/29 01:23:49;;;;;;;20.07;13.80;;;5.30;99.90;;;;;;5028619;28;20211;-66
2021/11/29 01:26:16;;;;;;;20.17;13.70;;;5.30;99.90;;;;;;5024367;28;20223;-66
2021/11/29 01:28:43;;;;;;;24.27;14.67;;;5.30;99.90;;;;;;5026054;28;20301;-65
2021/11/29 01:31:10;;;;;;;22.00;13.80;;;5.40;99.90;;;;;;5021986;28;20246;-66
2021/11/29 01:33:37;;;;;;;20.70;13.90;;;5.30;99.90;;;;;;5024170;28;20238;-66
2021/11/29 01:36:06;;;;;;;21.77;13.43;;;5.30;99.90;;;;;;5016825;28;20213;-67
2021/11/29 01:38:33;;;;;;;21.90;13.23;;;5.30;99.90;;;;;;5023121;28;20254;-68
2021/11/29 01:41:00;;;;;;;19.53;12.87;;;5.30;99.90;;;;;;5028855;28;20238;-66
2021/11/29 01:43:27;;;;;;;24.70;12.80;;;5.30;99.90;;;;;;5022210;28;20677;-67
2021/11/29 01:45:56;;;;;;;21.50;13.07;;;5.30;99.90;;;;;;5013518;28;20207;-66
2021/11/29 01:48:25;;;;;;;19.83;12.47;;;5.40;99.90;;;;;;5024159;28;20289;-67
2021/11/29 01:50:55;;;;;;;22.17;12.87;;;5.30;99.90;;;;;;5024669;28;20241;-66
2021/11/29 01:53:25;;;;;;;21.30;11.90;;;5.30;99.90;;;;;;5015570;28;20255;-68
2021/11/29 01:55:53;;;;;;;21.27;11.63;;;5.30;99.90;;;;;;5022107;28;20743;-66
2021/11/29 01:58:20;;;;;;;17.37;11.27;;;5.30;99.90;;;;;;5026675;28;20698;-66
2021/11/29 02:00:49;;;;;;;17.10;11.00;;;5.30;99.90;;;;;;5029731;28;20214;-66
2021/11/29 02:03:17;;;;;;;21.57;11.87;;;5.20;99.90;;;;;;5030275;28;20214;-66
2021/11/29 02:05:44;;;;;;;18.60;10.90;;;5.10;99.90;;;;;;5014789;28;20214;-66
2021/11/29 02:08:11;;;;;;;15.87;10.10;;;5.10;99.90;;;;;;5030067;28;20388;-67
2021/11/29 02:10:40;;;;;;;20.00;11.27;;;5.10;99.90;;;;;;5029911;28;20245;-66
2021/11/29 02:13:07;;;;;;;19.33;11.40;;;5.10;99.90;;;;;;5030160;28;20246;-66
2021/11/29 02:15:34;;;;;;;19.00;11.73;;;5.10;99.90;;;;;;5029894;28;20283;-66
2021/11/29 02:18:01;;;;;;;22.27;12.50;;;5.10;99.90;;;;;;5030509;28;20250;-66
2021/11/29 02:20:31;;;;;;;31.40;14.67;;;5.00;99.90;;;;;;5025294;28;20209;-64
2021/11/29 02:23:00;;;;;;;25.80;14.60;;;5.00;99.90;;;;;;5012008;28;20254;-66
2021/11/29 02:25:27;;;;;;;23.90;14.00;;;4.90;99.90;;;;;;5012205;28;20203;-67
2021/11/29 02:27:55;;;;;;;26.10;15.00;;;4.80;99.90;;;;;;5017808;28;20277;-66
2021/11/29 02:30:25;;;;;;;27.50;14.93;;;4.80;99.90;;;;;;5017622;28;20297;-66
2021/11/29 02:32:53;;;;;;;27.07;13.60;;;4.70;99.90;;;;;;5024795;28;20294;-66
2021/11/29 02:35:21;;;;;;;24.67;14.13;;;4.70;99.90;;;;;;5010669;28;20298;-65
2021/11/29 02:37:50;;;;;;;25.40;14.27;;;4.60;99.90;;;;;;5016947;28;20679;-66
2021/11/29 02:40:17;;;;;;;28.50;14.40;;;4.60;99.90;;;;;;5030600;28;20287;-66
2021/11/29 02:42:44;;;;;;;22.40;13.50;;;4.50;99.90;;;;;;5027571;28;20239;-66
2021/11/29 02:45:11;;;;;;;23.77;14.80;;;4.50;99.90;;;;;;5011280;28;20238;-67
2021/11/29 02:47:38;;;;;;;21.30;13.20;;;4.40;99.90;;;;;;5024691;28;20309;-66
2021/11/29 02:50:06;;;;;;;23.80;13.13;;;4.40;99.90;;;;;;5026205;28;20290;-66
2021/11/29 02:52:33;;;;;;;24.07;14.47;;;4.40;99.90;;;;;;5013751;28;20701;-66
2021/11/29 02:55:01;;;;;;;22.17;12.80;;;4.30;99.90;;;;;;5009878;28;20208;-67
2021/11/29 02:57:29;;;;;;;23.53;12.33;;;4.30;99.90;;;;;;5015679;28;20227;-66
2021/11/29 02:59:56;;;;;;;22.50;12.33;;;4.30;99.90;;;;;;5024097;28;20245;-66
2021/11/29 03:02:23;;;;;;;25.53;12.83;;;4.30;99.90;;;;;;5023916;28;20207;-66
2021/11/29 03:04:50;;;;;;;18.87;12.17;;;4.20;99.90;;;;;;5010677;28;20680;-67
2021/11/29 03:07:17;;;;;;;23.07;12.57;;;4.20;99.90;;;;;;5020088;28;20290;-66
2021/11/29 03:09:44;;;;;;;19.90;11.83;;;4.20;99.90;;;;;;5029930;28;20226;-66
2021/11/29 03:12:13;;;;;;;18.40;10.87;;;4.10;99.90;;;;;;5030369;28;20691;-66
2021/11/29 03:14:40;;;;;;;20.20;12.07;;;4.10;99.90;;;;;;5020222;28;20679;-66
2021/11/29 03:17:07;;;;;;;18.27;11.00;;;4.10;99.90;;;;;;5017385;28;20271;-65
2021/11/29 03:19:37;;;;;;;19.90;10.47;;;4.00;99.90;;;;;;5022555;28;20667;-66
2021/11/29 03:22:07;;;;;;;18.03;11.07;;;4.00;99.90;;;;;;5019034;28;20302;-66
2021/11/29 03:24:34;;;;;;;19.73;11.07;;;3.90;99.90;;;;;;5033655;28;20202;-65
2021/11/29 03:27:01;;;;;;;19.77;11.70;;;3.90;99.90;;;;;;5033414;28;20249;-66
2021/11/29 03:29:29;;;;;;;19.03;11.77;;;3.80;99.90;;;;;;5033991;28;20290;-66
2021/11/29 03:31:59;;;;;;;19.67;11.67;;;3.80;99.90;;;;;;5034185;28;20211;-65
2021/11/29 03:34:27;;;;;;;19.50;11.83;;;3.80;99.90;;;;;;5020043;28;20243;-65
2021/11/29 03:36:54;;;;;;;19.70;11.40;;;3.80;99.90;;;;;;5022951;28;20207;-65
2021/11/29 03:39:23;;;;;;;17.93;11.43;;;3.80;99.90;;;;;;5027798;28;20246;-65
2021/11/29 03:41:53;;;;;;;20.80;12.07;;;3.80;99.90;;;;;;5024230;28;20293;-66
2021/11/29 03:44:21;;;;;;;19.17;11.27;;;3.70;99.90;;;;;;5017764;28;20302;-64
2021/11/29 03:46:51;;;;;;;20.80;12.10;;;3.70;99.90;;;;;;5015308;28;20261;-64
2021/11/29 03:49:18;;;;;;;17.07;11.03;;;3.70;99.90;;;;;;5014642;28;20249;-65
2021/11/29 03:51:45;;;;;;;20.60;11.77;;;3.70;99.90;;;;;;5018641;28;20675;-66
2021/11/29 03:54:12;;;;;;;17.93;11.27;;;3.60;99.90;;;;;;5017935;28;20314;-65
2021/11/29 03:56:39;;;;;;;17.97;11.93;;;3.60;99.90;;;;;;5025503;28;20288;-65
2021/11/29 03:59:07;;;;;;;16.27;11.03;;;3.50;99.90;;;;;;5026310;28;20266;-65
2021/11/29 04:01:35;;;;;;;18.07;11.07;;;3.50;99.90;;;;;;5031162;28;20576;-67
2021/11/29 04:04:04;;;;;;;16.40;9.63;;;3.40;99.90;;;;;;5019838;28;20636;-66
2021/11/29 04:06:31;;;;;;;14.63;9.37;;;3.40;99.90;;;;;;5018001;28;20245;-66
2021/11/29 04:08:58;;;;;;;14.10;9.43;;;3.40;99.90;;;;;;5032472;28;20737;-66
2021/11/29 04:11:25;;;;;;;15.93;10.20;;;3.30;99.90;;;;;;5016250;28;20263;-65
2021/11/29 04:13:52;;;;;;;14.33;8.87;;;3.30;99.90;;;;;;5013225;28;20737;-65
2021/11/29 04:16:19;;;;;;;16.43;10.10;;;3.30;99.90;;;;;;5014858;28;20239;-65
2021/11/29 04:18:47;;;;;;;13.80;9.40;;;3.20;99.90;;;;;;5027455;28;20667;-65
2021/11/29 04:21:16;;;;;;;15.33;8.47;;;3.20;99.90;;;;;;5015845;28;20298;-65
2021/11/29 04:23:45;;;;;;;14.53;8.60;;;3.20;99.90;;;;;;5014689;28;20306;-65
2021/11/29 04:26:15;;;;;;;14.33;8.93;;;3.10;99.90;;;;;;5032782;28;21031;-64
2021/11/29 04:28:42;;;;;;;15.63;8.77;;;3.10;99.90;;;;;;5032306;28;20656;-65
2021/11/29 04:31:09;;;;;;;13.77;8.70;;;3.00;99.90;;;;;;5019099;28;20199;-65
2021/11/29 04:33:36;;;;;;;12.17;8.20;;;3.00;99.90;;;;;;5021116;28;20207;-66
2021/11/29 04:36:05;;;;;;;12.40;8.00;;;3.00;99.90;;;;;;5031254;28;20237;-67
2021/11/29 04:38:33;;;;;;;13.77;8.47;;;2.90;99.90;;;;;;5033308;28;20202;-66
2021/11/29 04:41:00;;;;;;;13.57;8.10;;;2.90;99.90;;;;;;5028109;28;20264;-67
2021/11/29 04:43:27;;;;;;;11.33;7.97;;;2.90;99.90;;;;;;5013449;28;20222;-67
2021/11/29 04:45:54;;;;;;;14.03;8.47;;;2.90;99.90;;;;;;5013168;28;20675;-67
2021/11/29 04:48:21;;;;;;;12.23;8.97;;;2.90;99.90;;;;;;5020376;28;20207;-66
2021/11/29 04:50:49;;;;;;;12.10;8.10;;;2.80;99.90;;;;;;5025356;28;20246;-66
2021/11/29 04:53:16;;;;;;;13.60;8.30;;;2.90;99.90;;;;;;5027453;28;20659;-65
2021/11/29 04:55:44;;;;;;;15.07;8.23;;;2.80;99.90;;;;;;5016998;28;20242;-67
2021/11/29 04:58:11;;;;;;;11.47;7.70;;;2.80;99.90;;;;;;5018583;28;20207;-66
2021/11/29 05:00:38;;;;;;;12.23;7.80;;;2.80;99.90;;;;;;5013094;28;20723;-67
2021/11/29 05:03:05;;;;;;;12.17;7.77;;;2.80;99.90;;;;;;5012926;28;20709;-67
2021/11/29 05:05:32;;;;;;;13.10;8.13;;;2.80;99.90;;;;;;5013177;28;20237;-68
2021/11/29 05:07:59;;;;;;;11.83;8.10;;;2.70;99.90;;;;;;5013214;28;20326;-67
2021/11/29 05:10:26;;;;;;;11.87;8.00;;;2.70;99.90;;;;;;5017633;28;20301;-67
2021/11/29 05:12:54;;;;;;;13.27;8.80;;;2.80;99.90;;;;;;5032001;28;20261;-66
2021/11/29 05:15:21;;;;;;;11.90;7.17;;;2.80;99.90;;;;;;5021926;28;20337;-67
2021/11/29 05:17:48;;;;;;;14.13;9.17;;;2.80;99.90;;;;;;5024776;28;20297;-67
2021/11/29 05:20:15;;;;;;;14.43;9.43;;;2.80;99.90;;;;;;5025437;28;20266;-66
2021/11/29 05:22:44;;;;;;;10.47;7.57;;;2.70;99.90;;;;;;5017257;28;20719;-67
2021/11/29 05:25:11;;;;;;;13.80;8.80;;;2.70;99.90;;;;;;5025492;28;20210;-67
2021/11/29 05:27:38;;;;;;;14.17;8.90;;;2.70;99.90;;;;;;5013419;28;20250;-67
2021/11/29 05:30:08;;;;;;;12.90;8.03;;;2.70;99.90;;;;;;5018152;28;20650;-67
2021/11/29 05:32:35;;;;;;;13.27;8.90;;;2.70;99.90;;;;;;5026329;28;20384;-66
2021/11/29 05:35:01;;;;;;;14.00;8.37;;;2.70;99.90;;;;;;5025197;28;20297;-67
2021/11/29 05:37:28;;;;;;;14.03;9.23;;;2.80;99.90;;;;;;5018636;28;20241;-67
2021/11/29 05:39:55;;;;;;;16.67;9.30;;;2.80;99.90;;;;;;5032155;28;20665;-65
2021/11/29 05:42:22;;;;;;;14.77;8.43;;;2.80;99.90;;;;;;5018394;28;20287;-66
2021/11/29 05:44:50;;;;;;;14.00;8.30;;;2.80;99.90;;;;;;5016235;28;20239;-67
2021/11/29 05:47:19;;;;;;;14.93;8.23;;;2.80;99.90;;;;;;5030528;28;20215;-66
2021/11/29 05:49:46;;;;;;;14.20;8.53;;;2.80;99.90;;;;;;5016330;28;20634;-66
2021/11/29 05:52:13;;;;;;;16.10;8.90;;;2.80;99.90;;;;;;5011925;28;20763;-66
2021/11/29 05:54:40;;;;;;;14.37;8.53;;;2.80;99.90;;;;;;5019855;28;20275;-66
2021/11/29 05:57:07;;;;;;;15.13;8.40;;;2.80;99.90;;;;;;5025425;28;20310;-66
2021/11/29 05:59:34;;;;;;;13.70;8.50;;;2.80;99.90;;;;;;5023519;28;20224;-67
2021/11/29 06:02:01;;;;;;;12.07;8.50;;;2.70;99.90;;;;;;5029722;28;20207;-65
2021/11/29 06:04:29;;;;;;;13.50;8.77;;;2.70;99.90;;;;;;5030397;28;20277;-65
2021/11/29 06:06:56;;;;;;;16.70;9.10;;;2.70;99.90;;;;;;5014919;28;20243;-66
2021/11/29 06:09:23;;;;;;;16.07;9.83;;;2.70;99.90;;;;;;5027478;28;20241;-67
2021/11/29 06:11:50;;;;;;;14.03;9.97;;;2.70;99.90;;;;;;5016645;28;20295;-66
2021/11/29 06:14:17;;;;;;;16.07;10.33;;;2.70;99.90;;;;;;5011992;28;20235;-66
2021/11/29 06:16:44;;;;;;;15.43;10.10;;;2.70;99.90;;;;;;5020622;28;20206;-66
2021/11/29 06:19:11;;;;;;;15.33;10.13;;;2.60;99.90;;;;;;5021492;28;20289;-68
2021/11/29 06:21:39;;;;;;;15.20;10.23;;;2.60;99.90;;;;;;5015654;28;20235;-69
2021/11/29 06:24:06;;;;;;;12.93;9.57;;;2.60;99.90;;;;;;5017822;28;20545;-68
2021/11/29 06:26:33;;;;;;;14.73;9.43;;;2.50;99.90;;;;;;5019224;28;20357;-69
2021/11/29 06:29:00;;;;;;;14.93;9.83;;;2.50;99.90;;;;;;5014646;28;20215;-69
2021/11/29 06:31:27;;;;;;;16.07;10.27;;;2.50;99.90;;;;;;5022152;28;20264;-69
2021/11/29 06:33:54;;;;;;;18.20;10.87;;;2.50;99.90;;;;;;5013658;28;20234;-68
2021/11/29 06:36:21;;;;;;;14.07;9.70;;;2.50;99.90;;;;;;5014955;28;20207;-68
2021/11/29 06:38:49;;;;;;;16.13;10.97;;;2.50;99.90;;;;;;5016619;28;21546;-68
2021/11/29 06:41:19;;;;;;;15.50;9.97;;;2.40;99.90;;;;;;5025020;28;20231;-68
2021/11/29 06:43:46;;;;;;;13.20;9.70;;;2.40;99.90;;;;;;5019195;28;20207;-70
2021/11/29 06:46:13;;;;;;;12.90;9.80;;;2.40;99.90;;;;;;5015942;28;20238;-70
2021/11/29 06:48:40;;;;;;;16.43;10.67;;;2.40;99.90;;;;;;5014337;28;20288;-69
2021/11/29 06:51:07;;;;;;;12.67;9.17;;;2.40;99.90;;;;;;5030242;28;20747;-69
2021/11/29 06:53:34;;;;;;;14.73;9.70;;;2.40;99.90;;;;;;5033401;28;20264;-69
2021/11/29 06:56:02;;;;;;;13.17;9.43;;;2.50;99.90;;;;;;5021412;28;20289;-69
2021/11/29 06:58:30;;;;;;;14.97;10.13;;;2.50;99.90;;;;;;5022603;28;20203;-69
2021/11/29 07:00:57;;;;;;;15.17;9.30;;;2.50;99.90;;;;;;5022060;28;20657;-68
2021/11/29 07:03:24;;;;;;;13.80;10.60;;;2.50;99.90;;;;;;5023908;28;20676;-67
2021/11/29 07:05:51;;;;;;;13.53;9.50;;;2.60;99.90;;;;;;5022204;28;20214;-68
2021/11/29 07:08:19;;;;;;;12.80;9.70;;;2.50;99.90;;;;;;5021822;28;20309;-68
2021/11/29 07:10:47;;;;;;;12.53;9.40;;;2.50;99.90;;;;;;5023805;28;20214;-71
2021/11/29 07:13:16;;;;;;;12.57;8.80;;;2.50;99.90;;;;;;5028126;28;20202;-71
2021/11/29 07:15:44;;;;;;;13.20;9.93;;;2.50;99.90;;;;;;5020726;28;20211;-72
2021/11/29 07:18:11;;;;;;;13.47;9.53;;;2.50;99.90;;;;;;5026774;28;20202;-70
2021/11/29 07:20:38;;;;;;;14.60;10.20;;;2.40;99.90;;;;;;5012848;28;20219;-71
2021/11/29 07:23:05;;;;;;;13.33;9.43;;;2.40;99.90;;;;;;5014632;28;20294;-70
2021/11/29 07:25:33;;;;;;;13.47;9.97;;;2.40;99.90;;;;;;5024849;28;20210;-70
2021/11/29 07:28:00;;;;;;;13.10;9.70;;;2.40;99.90;;;;;;5024922;28;20664;-71
2021/11/29 07:30:29;;;;;;;12.70;9.93;;;2.50;99.90;;;;;;5017514;28;20270;-70
2021/11/29 07:32:57;;;;;;;14.23;9.03;;;2.50;99.90;;;;;;5012305;28;20298;-70
2021/11/29 07:35:26;;;;;;;12.70;9.10;;;2.50;99.90;;;;;;5011649;28;20211;-71
2021/11/29 07:37:53;;;;;;;12.50;9.20;;;2.50;99.90;;;;;;5012098;28;20267;-70
2021/11/29 07:40:27;;;;;;;13.43;9.67;;;2.50;99.90;;;;;;5013309;28;20278;-73
2021/11/29 07:42:54;;;;;;;13.00;9.33;;;2.50;99.90;;;;;;5013448;28;20206;-70
2021/11/29 07:45:21;;;;;;;11.70;8.97;;;2.50;99.90;;;;;;5018540;28;20207;-69
2021/11/29 07:47:49;;;;;;;11.20;8.90;;;2.50;99.90;;;;;;5011874;28;20243;-70
2021/11/29 07:50:18;;;;;;;12.87;8.80;;;2.50;99.90;;;;;;5028171;28;20195;-71
2021/11/29 07:52:47;;;;;;;13.43;8.97;;;2.50;99.90;;;;;;5024338;28;20298;-70
2021/11/29 07:55:16;;;;;;;10.27;7.63;;;2.50;99.90;;;;;;5023988;28;20257;-69
2021/11/29 07:57:44;;;;;;;10.13;7.73;;;2.50;99.90;;;;;;5012077;28;20231;-70
2021/11/29 08:00:18;;;;;;;10.80;8.23;;;2.50;99.90;;;;;;5011570;28;20231;-68
2021/11/29 08:02:45;;;;;;;10.47;8.13;;;2.50;99.90;;;;;;5011503;28;20711;-70
2021/11/29 08:05:13;;;;;;;11.20;6.97;;;2.50;99.90;;;;;;5011920;28;20218;-69
2021/11/29 08:07:40;;;;;;;10.03;7.40;;;2.50;99.90;;;;;;5013427;28;20208;-69
2021/11/29 08:10:08;;;;;;;12.57;7.97;;;2.50;99.90;;;;;;5015675;28;20586;-69
2021/11/29 08:12:35;;;;;;;12.33;7.37;;;2.50;99.90;;;;;;5029649;28;20242;-70
2021/11/29 08:15:02;;;;;;;10.90;8.13;;;2.40;99.90;;;;;;5027352;28;20750;-70
2021/11/29 08:17:29;;;;;;;11.50;7.83;;;2.40;99.90;;;;;;5029906;28;20668;-69
2021/11/29 08:19:56;;;;;;;10.17;7.17;;;2.40;99.90;;;;;;5026800;28;20236;-69
2021/11/29 08:22:25;;;;;;;11.17;8.07;;;2.40;99.90;;;;;;5017797;28;20230;-69
2021/11/29 08:24:52;;;;;;;11.30;7.73;;;2.40;99.90;;;;;;5015789;28;20771;-69
2021/11/29 08:27:19;;;;;;;12.30;8.17;;;2.50;99.90;;;;;;5025381;28;20605;-69
2021/11/29 08:29:46;;;;;;;11.83;8.50;;;2.40;99.90;;;;;;5025883;28;20657;-69
2021/11/29 08:32:13;;;;;;;12.67;8.57;;;2.40;99.90;;;;;;5014905;28;20724;-69
2021/11/29 08:34:41;;;;;;;12.17;8.60;;;2.40;99.90;;;;;;5017343;28;20299;-69
2021/11/29 08:37:09;;;;;;;12.77;8.70;;;2.40;99.90;;;;;;5013620;28;20290;-69
2021/11/29 08:39:38;;;;;;;12.40;8.87;;;2.50;99.90;;;;;;5015719;28;20207;-70
2021/11/29 08:42:06;;;;;;;11.77;9.00;;;2.50;99.90;;;;;;5014896;28;20603;-69
2021/11/29 08:44:33;;;;;;;15.10;9.83;;;2.40;99.90;;;;;;5015927;28;20212;-70
2021/11/29 08:47:00;;;;;;;13.80;9.10;;;2.40;99.90;;;;;;5015517;28;20678;-69
2021/11/29 08:49:28;;;;;;;15.83;9.43;;;2.50;99.90;;;;;;5018292;28;20245;-70
2021/11/29 08:51:56;;;;;;;13.13;9.53;;;2.40;99.90;;;;;;5028846;28;20684;-70
2021/11/29 08:54:24;;;;;;;13.23;8.77;;;2.50;99.90;;;;;;5019631;28;20294;-70
2021/11/29 08:56:53;;;;;;;14.10;9.53;;;2.50;99.90;;;;;;5037238;28;20218;-70
2021/11/29 08:59:22;;;;;;;11.23;7.83;;;2.60;99.90;;;;;;5034217;28;20570;-70
2021/11/29 09:01:52;;;;;;;12.97;7.97;;;2.50;99.90;;;;;;5022622;28;20253;-70
2021/11/29 09:04:19;;;;;;;13.93;8.67;;;2.50;99.90;;;;;;5021546;28;20206;-71
2021/11/29 09:06:46;;;;;;;12.43;8.30;;;2.50;99.90;;;;;;5024201;28;20211;-69
2021/11/29 09:09:14;;;;;;;13.80;8.33;;;2.50;99.90;;;;;;5028162;28;20207;-70
2021/11/29 09:11:41;;;;;;;14.53;9.00;;;2.50;99.90;;;;;;5029323;28;20231;-70
2021/11/29 09:14:11;;;;;;;13.50;8.53;;;2.50;99.90;;;;;;5034715;28;20389;-69
2021/11/29 09:16:38;;;;;;;11.73;7.30;;;2.50;99.90;;;;;;5035175;28;20224;-69
2021/11/29 09:19:06;;;;;;;11.53;8.37;;;2.40;99.90;;;;;;5029839;28;20362;-70
2021/11/29 09:21:34;;;;;;;11.17;7.93;;;2.40;99.90;;;;;;5030417;28;20219;-70
2021/11/29 09:24:01;;;;;;;14.27;8.73;;;2.40;99.90;;;;;;5020161;28;20215;-70
2021/11/29 09:26:30;;;;;;;11.30;8.03;;;2.40;99.90;;;;;;5015138;28;20203;-69
2021/11/29 09:28:57;;;;;;;13.53;8.67;;;2.40;99.90;;;;;;5025377;28;20218;-69
2021/11/29 09:31:26;;;;;;;13.63;8.00;;;2.40;99.90;;;;;;5026383;28;20222;-70
2021/11/29 09:33:54;;;;;;;14.33;9.23;;;2.50;99.90;;;;;;5022316;28;20285;-69
2021/11/29 09:36:21;;;;;;;13.50;8.73;;;2.50;99.90;;;;;;5014628;28;20200;-69
2021/11/29 09:38:48;;;;;;;11.33;7.70;;;2.40;99.90;;;;;;5016796;28;20669;-70
2021/11/29 09:41:17;;;;;;;13.13;8.40;;;2.40;99.90;;;;;;5031997;28;20262;-70
2021/11/29 09:43:44;;;;;;;12.87;8.67;;;2.40;99.90;;;;;;5021641;28;20211;-69
2021/11/29 09:46:11;;;;;;;13.07;8.20;;;2.40;99.90;;;;;;5016845;28;20249;-69
2021/11/29 09:48:39;;;;;;;13.50;8.17;;;2.40;99.90;;;;;;5025983;28;20234;-69
2021/11/29 09:51:06;;;;;;;15.93;8.93;;;2.40;99.90;;;;;;5033029;28;20656;-69
2021/11/29 09:53:34;;;;;;;14.97;8.70;;;2.40;99.90;;;;;;5025636;28;20283;-70
2021/11/29 09:56:03;;;;;;;12.13;8.27;;;2.40;99.90;;;;;;5032592;28;20206;-68
2021/11/29 09:58:31;;;;;;;13.20;8.77;;;2.30;99.90;;;;;;5020139;28;20217;-68
2021/11/29 10:01:01;;;;;;;12.90;8.53;;;2.30;99.90;;;;;;5027759;28;20235;-69
2021/11/29 10:03:28;;;;;;;14.83;9.17;;;2.30;99.90;;;;;;5020089;28;20306;-69
2021/11/29 10:05:57;;;;;;;16.63;9.77;;;2.30;99.90;;;;;;5014922;28;20202;-68
2021/11/29 10:08:28;;;;;;;13.67;8.87;;;2.30;99.90;;;;;;5027658;28;20574;-70
2021/11/29 10:10:58;;;;;;;14.53;8.63;;;2.40;99.90;;;;;;5029665;28;20562;-69
2021/11/29 10:13:27;;;;;;;15.07;9.30;;;2.40;99.90;;;;;;5022931;28;20707;-69
2021/11/29 10:15:54;;;;;;;12.83;8.27;;;2.30;99.90;;;;;;5013795;28;20243;-67
2021/11/29 10:18:23;;;;;;;17.03;9.47;;;2.40;99.90;;;;;;5019642;28;20238;-67
2021/11/29 10:20:58;;;;;;;12.43;8.57;;;2.30;99.90;;;;;;5024779;28;20286;-70
2021/11/29 10:23:35;;;;;;;12.07;8.30;;;2.30;99.90;;;;;;5032266;28;20210;-68
2021/11/29 10:26:04;;;;;;;15.10;8.83;;;2.30;99.90;;;;;;5019026;28;20206;-68
2021/11/29 10:28:35;;;;;;;14.03;8.30;;;2.40;99.90;;;;;;5026715;28;20637;-70
2021/11/29 10:31:16;;;;;;;13.27;7.93;;;2.40;99.90;;;;;;5014323;28;20207;-70
2021/11/29 10:33:49;;;;;;;13.77;7.70;;;2.40;99.90;;;;;;5018953;28;20214;-70
2021/11/29 10:36:19;;;;;;;14.13;8.37;;;2.40;99.90;;;;;;5028230;28;20264;-68
2021/11/29 10:38:50;;;;;;;13.30;8.00;;;2.40;99.90;;;;;;5019565;28;20645;-69
2021/11/29 10:41:23;;;;;;;12.60;9.10;;;2.40;99.90;;;;;;5027636;28;20684;-70
2021/11/29 10:43:50;;;;;;;16.77;8.63;;;2.50;99.90;;;;;;5014098;28;20275;-70
2021/11/29 10:46:19;;;;;;;12.87;7.63;;;2.50;99.90;;;;;;5025086;28;20759;-70
2021/11/29 10:48:46;;;;;;;13.83;8.60;;;2.50;99.90;;;;;;5023124;28;20203;-69
2021/11/29 10:51:15;;;;;;;15.50;9.87;;;2.50;99.90;;;;;;5024867;28;20198;-69
2021/11/29 10:53:53;;;;;;;14.50;8.90;;;2.50;99.90;;;;;;5017988;28;20286;-70
2021/11/29 10:56:20;;;;;;;12.87;8.47;;;2.50;99.90;;;;;;5032269;28;20576;-68
2021/11/29 10:58:50;;;;;;;12.60;8.33;;;2.50;99.90;;;;;;5025227;28;20206;-69
2021/11/29 11:01:31;;;;;;;12.87;8.07;;;2.60;99.90;;;;;;5023040;28;20271;-70
2021/11/29 11:03:58;;;;;;;13.50;8.27;;;2.60;99.90;;;;;;5018269;28;20206;-69
2021/11/29 11:06:32;;;;;;;14.53;9.57;;;2.60;99.90;;;;;;5020708;28;20243;-69
2021/11/29 11:09:00;;;;;;;14.33;9.83;;;2.60;99.90;;;;;;5024861;28;20273;-69
2021/11/29 11:11:30;;;;;;;13.30;8.77;;;2.60;99.90;;;;;;5019529;28;20250;-69
2021/11/29 11:13:58;;;;;;;20.20;11.73;;;2.60;99.90;;;;;;5016641;28;20266;-69
2021/11/29 11:16:39;;;;;;;23.90;14.23;;;2.60;99.90;;;;;;5022773;28;20206;-69
2021/11/29 11:19:09;;;;;;;15.37;9.03;;;2.60;99.90;;;;;;5015237;28;20234;-68
2021/11/29 11:21:36;;;;;;;24.07;13.77;;;2.60;99.90;;;;;;5025338;28;20313;-68
2021/11/29 11:24:20;;;;;;;19.17;10.83;;;2.60;99.90;;;;;;5014743;28;20289;-69
2021/11/29 11:26:49;;;;;;;26.10;13.40;;;2.70;99.90;;;;;;5026330;28;20202;-67
2021/11/29 11:29:31;;;;;;;14.53;8.63;;;2.60;99.90;;;;;;5023148;28;20207;-69
2021/11/29 11:32:09;;;;;;;13.83;8.57;;;2.70;99.90;;;;;;5012121;28;20235;-68
2021/11/29 11:34:37;;;;;;;18.40;9.67;;;2.60;99.90;;;;;;5015989;28;20292;-69
2021/11/29 11:37:05;;;;;;;13.23;8.23;;;2.70;99.90;;;;;;5013053;28;20258;-68
2021/11/29 11:39:33;;;;;;;13.33;9.43;;;2.70;99.90;;;;;;5010898;28;20306;-69
2021/11/29 11:42:01;;;;;;;13.52;9.40;;;2.70;99.90;;;;;;5016211;28;20569;-69
2021/11/29 11:44:29;;;;;;;16.27;10.23;;;2.70;99.90;;;;;;5027680;28;20218;-69
2021/11/29 11:46:58;;;;;;;20.57;10.87;;;2.70;99.90;;;;;;5031660;28;20241;-68
2021/11/29 11:49:25;;;;;;;22.98;15.50;;;2.80;99.90;;;;;;5020979;28;20915;-67
2021/11/29 11:51:52;;;;;;;29.57;14.77;;;2.80;99.90;;;;;;5027297;28;20207;-68
2021/11/29 11:54:19;;;;;;;21.93;12.13;;;2.80;99.90;;;;;;5025710;28;20320;-67
2021/11/29 11:56:48;;;;;;;12.77;8.60;;;2.80;99.90;;;;;;5026160;28;20317;-67
2021/11/29 11:59:18;;;;;;;17.47;9.80;;;2.90;99.90;;;;;;5025325;28;20873;-67
2021/11/29 12:01:47;;;;;;;18.73;10.65;;;2.90;99.90;;;;;;5023456;28;20784;-67
2021/11/29 12:04:16;;;;;;;16.23;9.40;;;2.90;99.90;;;;;;5020545;28;20275;-67
2021/11/29 12:06:44;;;;;;;20.67;10.20;;;2.90;99.90;;;;;;5017443;28;20732;-67
2021/11/29 12:09:13;;;;;;;14.27;8.77;;;2.90;99.90;;;;;;5022284;28;20207;-68
2021/11/29 12:11:44;;;;;;;16.80;9.53;;;2.90;99.90;;;;;;5019408;28;20252;-68
2021/11/29 12:14:17;;;;;;;16.00;9.57;;;2.90;99.90;;;;;;5031860;28;20766;-67
2021/11/29 12:16:46;;;;;;;17.13;9.47;;;2.90;99.90;;;;;;5022815;28;20203;-68
2021/11/29 12:19:35;;;;;;;15.13;8.87;;;2.90;99.90;;;;;;5021389;28;20230;-66
2021/11/29 12:22:05;;;;;;;17.43;10.10;;;2.90;99.90;;;;;;5016015;28;20338;-67
2021/11/29 12:24:40;;;;;;;15.47;8.87;;;2.90;99.90;;;;;;5019623;28;20251;-67
2021/11/29 12:27:09;;;;;;;15.80;9.23;;;2.90;99.90;;;;;;5021537;28;20198;-67
2021/11/29 12:29:50;;;;;;;16.00;9.17;;;2.80;99.90;;;;;;5019723;28;20699;-66
2021/11/29 12:32:19;;;;;;;12.23;8.47;;;2.90;99.90;;;;;;5015218;28;20207;-66
2021/11/29 12:35:02;;;;;;;17.70;9.57;;;2.90;99.90;;;;;;5015683;28;20670;-67
2021/11/29 12:37:31;;;;;;;15.43;9.07;;;2.80;99.90;;;;;;5018279;28;20203;-67
2021/11/29 12:40:05;;;;;;;14.87;8.13;;;2.80;99.90;;;;;;5020667;28;20247;-67
2021/11/29 12:42:52;;;;;;;14.63;8.53;;;2.90;99.90;;;;;;5021743;28;20247;-67
2021/11/29 12:45:23;;;;;;;15.37;7.93;;;2.80;99.90;;;;;;5014903;28;20650;-68
2021/11/29 12:47:52;;;;;;;14.57;8.50;;;2.90;99.90;;;;;;5015765;28;20203;-69